createdAt,value
2018-11-05T00:00:02.136Z,28.5
2018-11-05T00:01:02.856Z,26.7
2018-11-05T00:02:03.583Z,25.7
2018-11-05T00:03:04.299Z,27.0
2018-11-05T00:04:05.013Z,27.2
2018-11-05T00:05:05.732Z,28.4
2018-11-05T00:06:06.453Z,28.6
2018-11-05T00:07:07.164Z,26.5
2018-11-05T00:08:07.856Z,29.2
2018-11-05T00:09:08.658Z,31.9
2018-11-05T00:10:09.379Z,26.6
2018-11-05T00:11:10.103Z,29.1
2018-11-05T00:12:10.858Z,28.1
2018-11-05T00:13:11.577Z,33.1
2018-11-05T00:14:12.295Z,31.6
2018-11-05T00:15:13.030Z,29.2
2018-11-05T00:16:13.745Z,29.4
2018-11-05T00:17:14.480Z,33.1
2018-11-05T00:18:15.467Z,28.5
2018-11-05T00:19:16.180Z,30.7
2018-11-05T00:20:16.908Z,33.9
2018-11-05T00:21:17.633Z,31.3
2018-11-05T00:22:18.351Z,31.0
2018-11-05T00:23:19.064Z,30.7
2018-11-05T00:24:19.801Z,34.5
2018-11-05T00:25:20.513Z,29.2
2018-11-05T00:26:21.244Z,32.1
2018-11-05T00:27:21.963Z,32.4
2018-11-05T00:28:22.676Z,32.0
2018-11-05T00:29:23.401Z,33.1
2018-11-05T00:30:24.158Z,31.9
2018-11-05T00:31:24.887Z,32.6
2018-11-05T00:32:25.610Z,34.2
2018-11-05T00:33:26.328Z,29.6
2018-11-05T00:34:27.045Z,33.0
2018-11-05T00:35:27.826Z,31.5
2018-11-05T00:36:28.548Z,31.4
2018-11-05T00:37:29.269Z,31.5
2018-11-05T00:38:29.995Z,34.7
2018-11-05T00:39:30.723Z,32.4
2018-11-05T00:40:31.491Z,34.2
2018-11-05T00:41:32.203Z,30.4
2018-11-05T00:42:32.911Z,35.3
2018-11-05T00:43:33.636Z,29.5
2018-11-05T00:44:34.349Z,36.7
2018-11-05T00:45:35.106Z,35.1
2018-11-05T00:46:35.802Z,30.5
2018-11-05T00:47:36.519Z,33.3
2018-11-05T00:48:37.237Z,33.5
2018-11-05T00:49:37.976Z,31.6
2018-11-05T00:50:38.710Z,35.8
2018-11-05T00:51:39.747Z,33.0
2018-11-05T00:52:40.440Z,32.8
2018-11-05T00:53:41.171Z,34.9
2018-11-05T00:54:41.902Z,32.8
2018-11-05T00:55:42.636Z,36.4
2018-11-05T00:56:43.353Z,32.9
2018-11-05T00:57:44.083Z,33.2
2018-11-05T00:58:44.838Z,32.8
2018-11-05T00:59:45.566Z,34.3
2018-11-05T01:00:46.293Z,30.9
2018-11-05T01:01:47.208Z,65.0
2018-11-05T01:02:47.930Z,38.7
2018-11-05T01:03:48.671Z,36.5
2018-11-05T01:04:49.380Z,38.7
2018-11-05T01:05:50.353Z,30.8
2018-11-05T01:06:51.080Z,35.2
2018-11-05T01:07:51.797Z,33.2
2018-11-05T01:08:52.520Z,32.1
2018-11-05T01:09:53.237Z,36.4
2018-11-05T01:10:54.200Z,30.8
2018-11-05T01:11:54.916Z,32.8
2018-11-05T01:12:55.697Z,37.7
2018-11-05T01:13:56.355Z,31.3
2018-11-05T01:14:57.446Z,67.1
2018-11-05T01:15:58.185Z,40.9
2018-11-05T01:16:58.917Z,34.9
2018-11-05T01:17:59.629Z,33.2
2018-11-05T01:19:00.594Z,34.2
2018-11-05T01:20:01.367Z,33.0
2018-11-05T01:21:02.094Z,32.9
2018-11-05T01:22:02.815Z,31.3
2018-11-05T01:23:03.790Z,36.3
2018-11-05T01:24:04.523Z,102.5
2018-11-05T01:25:05.290Z,38.7
2018-11-05T01:26:06.012Z,35.9
2018-11-05T01:27:06.735Z,31.7
2018-11-05T01:28:07.450Z,34.9
2018-11-05T01:29:08.187Z,35.5
2018-11-05T01:30:09.173Z,32.0
2018-11-05T01:31:09.888Z,34.3
2018-11-05T01:32:10.617Z,35.3
2018-11-05T01:33:11.336Z,36.1
2018-11-05T01:34:12.046Z,35.1
2018-11-05T01:35:12.771Z,35.1
2018-11-05T01:36:13.494Z,35.1
2018-11-05T01:37:14.319Z,34.0
2018-11-05T01:38:14.932Z,37.7
2018-11-05T01:39:15.916Z,35.2
2018-11-05T01:40:16.622Z,36.1
2018-11-05T01:41:17.345Z,33.8
2018-11-05T01:42:18.311Z,34.0
2018-11-05T01:43:19.279Z,33.9
2018-11-05T01:44:20.000Z,33.7
2018-11-05T01:45:20.727Z,34.9
2018-11-05T01:46:21.454Z,35.9
2018-11-05T01:47:22.164Z,35.1
2018-11-05T01:48:22.889Z,31.8
2018-11-05T01:49:23.604Z,40.3
2018-11-05T01:50:24.327Z,37.7
2018-11-05T01:51:25.054Z,35.8
2018-11-05T01:52:26.027Z,37.7
2018-11-05T01:53:26.747Z,34.7
2018-11-05T01:54:27.469Z,35.5
2018-11-05T01:55:28.194Z,35.4
2018-11-05T01:56:29.165Z,37.8
2018-11-05T01:57:29.888Z,36.2
2018-11-05T01:58:30.919Z,38.0
2018-11-05T01:59:31.645Z,43.9
2018-11-05T02:00:32.621Z,35.8
2018-11-05T02:01:33.339Z,36.2
2018-11-05T02:02:34.065Z,36.1
2018-11-05T02:03:34.793Z,36.4
2018-11-05T02:04:35.510Z,34.7
2018-11-05T02:05:36.241Z,36.6
2018-11-05T02:06:37.222Z,34.8
2018-11-05T02:07:37.930Z,33.7
2018-11-05T02:08:38.658Z,39.6
2018-11-05T02:09:39.375Z,40.1
2018-11-05T02:10:40.103Z,34.3
2018-11-05T02:11:40.853Z,37.9
2018-11-05T02:12:41.836Z,34.7
2018-11-05T02:13:42.560Z,37.4
2018-11-05T02:14:43.273Z,36.3
2018-11-05T02:15:44.290Z,37.7
2018-11-05T02:16:45.267Z,34.6
2018-11-05T02:17:45.987Z,35.5
2018-11-05T02:18:46.716Z,33.1
2018-11-05T02:19:47.442Z,41.7
2018-11-05T02:20:48.171Z,36.6
2018-11-05T02:21:48.889Z,38.8
2018-11-05T02:22:49.617Z,35.2
2018-11-05T02:23:50.337Z,34.1
2018-11-05T02:24:51.071Z,36.2
2018-11-05T02:25:51.803Z,36.9
2018-11-05T02:26:52.525Z,33.8
2018-11-05T02:27:53.247Z,36.1
2018-11-05T02:28:53.964Z,34.2
2018-11-05T02:29:54.694Z,33.0
2018-11-05T02:30:55.417Z,34.4
2018-11-05T02:31:56.134Z,36.6
2018-11-05T02:32:56.853Z,39.6
2018-11-05T02:33:57.576Z,38.7
2018-11-05T02:34:58.289Z,39.6
2018-11-05T02:35:59.032Z,34.1
2018-11-05T02:36:59.765Z,37.5
2018-11-05T02:38:00.485Z,40.4
2018-11-05T02:39:01.198Z,37.1
2018-11-05T02:40:01.937Z,37.2
2018-11-05T02:41:02.639Z,37.3
2018-11-05T02:42:03.603Z,36.3
2018-11-05T02:43:04.342Z,41.1
2018-11-05T02:44:05.075Z,36.9
2018-11-05T02:45:05.788Z,35.6
2018-11-05T02:46:06.505Z,35.0
2018-11-05T02:47:07.234Z,37.8
2018-11-05T02:48:07.950Z,37.2
2018-11-05T02:49:08.926Z,35.6
2018-11-05T02:50:09.658Z,38.7
2018-11-05T02:51:10.431Z,36.2
2018-11-05T02:52:11.147Z,33.5
2018-11-05T02:53:11.868Z,35.1
2018-11-05T02:54:12.594Z,34.3
2018-11-05T02:55:13.315Z,35.7
2018-11-05T02:56:14.030Z,33.0
2018-11-05T02:57:14.750Z,35.4
2018-11-05T02:58:15.479Z,40.4
2018-11-05T02:59:16.198Z,35.4
2018-11-05T03:00:16.914Z,37.4
2018-11-05T03:01:17.645Z,34.7
2018-11-05T03:02:18.366Z,34.6
2018-11-05T03:03:19.157Z,35.2
2018-11-05T03:04:19.795Z,35.0
2018-11-05T03:05:20.523Z,35.0
2018-11-05T03:06:21.253Z,34.0
2018-11-05T03:07:21.978Z,33.3
2018-11-05T03:08:22.697Z,35.2
2018-11-05T03:09:23.413Z,37.0
2018-11-05T03:10:24.132Z,36.8
2018-11-05T03:11:24.861Z,34.6
2018-11-05T03:12:25.579Z,35.2
2018-11-05T03:13:26.355Z,32.4
2018-11-05T03:14:27.070Z,32.6
2018-11-05T03:15:27.800Z,35.0
2018-11-05T03:16:28.533Z,35.8
2018-11-05T03:17:29.255Z,33.2
2018-11-05T03:18:29.983Z,34.9
2018-11-05T03:19:30.697Z,40.7
2018-11-05T03:20:31.413Z,34.6
2018-11-05T03:21:32.143Z,35.1
2018-11-05T03:22:32.883Z,33.3
2018-11-05T03:23:33.610Z,31.0
2018-11-05T03:24:34.332Z,33.5
2018-11-05T03:25:35.056Z,32.8
2018-11-05T03:26:35.774Z,38.6
2018-11-05T03:27:36.512Z,36.7
2018-11-05T03:28:37.234Z,33.2
2018-11-05T03:29:37.960Z,34.8
2018-11-05T03:30:38.674Z,31.7
2018-11-05T03:31:39.400Z,33.6
2018-11-05T03:32:40.382Z,32.7
2018-11-05T03:33:41.110Z,36.9
2018-11-05T03:34:41.827Z,37.9
2018-11-05T03:35:42.678Z,35.7
2018-11-05T03:36:43.291Z,35.0
2018-11-05T03:37:44.016Z,31.7
2018-11-05T03:38:44.747Z,38.6
2018-11-05T03:39:45.721Z,34.3
2018-11-05T03:40:46.445Z,32.1
2018-11-05T03:41:47.164Z,31.1
2018-11-05T03:42:47.895Z,35.8
2018-11-05T03:43:48.644Z,32.0
2018-11-05T03:44:49.360Z,35.9
2018-11-05T03:45:50.385Z,34.1
2018-11-05T03:46:51.391Z,35.5
2018-11-05T03:47:52.116Z,32.7
2018-11-05T03:48:52.834Z,33.8
2018-11-05T03:49:53.547Z,33.5
2018-11-05T03:50:54.304Z,32.8
2018-11-05T03:51:55.043Z,32.4
2018-11-05T03:52:55.773Z,35.7
2018-11-05T03:53:56.491Z,34.8
2018-11-05T03:54:57.200Z,31.2
2018-11-05T03:55:58.546Z,34.0
2018-11-05T03:56:59.147Z,33.5
2018-11-05T03:57:59.853Z,39.0
2018-11-05T03:59:00.585Z,33.7
2018-11-05T04:00:01.309Z,37.2
2018-11-05T04:01:02.279Z,36.3
2018-11-05T04:02:02.994Z,34.9
2018-11-05T04:03:03.909Z,41.6
2018-11-05T04:04:04.596Z,36.8
2018-11-05T04:05:05.311Z,35.9
2018-11-05T04:06:06.040Z,36.0
2018-11-05T04:07:06.748Z,36.4
2018-11-05T04:08:07.475Z,35.4
2018-11-05T04:09:08.199Z,36.3
2018-11-05T04:10:08.917Z,34.3
2018-11-05T04:11:09.643Z,36.7
2018-11-05T04:12:10.385Z,33.6
2018-11-05T04:13:11.098Z,39.2
2018-11-05T04:14:11.824Z,37.5
2018-11-05T04:15:12.615Z,43.5
2018-11-05T04:16:13.418Z,39.5
2018-11-05T04:17:14.007Z,39.4
2018-11-05T04:18:14.787Z,36.8
2018-11-05T04:19:15.505Z,37.3
2018-11-05T04:20:16.230Z,34.3
2018-11-05T04:21:16.953Z,37.7
2018-11-05T04:22:17.953Z,40.4
2018-11-05T04:23:18.732Z,38.2
2018-11-05T04:24:19.445Z,39.0
2018-11-05T04:25:20.162Z,38.1
2018-11-05T04:26:20.887Z,37.2
2018-11-05T04:27:21.854Z,37.1
2018-11-05T04:28:22.582Z,38.9
2018-11-05T04:29:23.299Z,40.3
2018-11-05T04:30:24.023Z,41.2
2018-11-05T04:31:24.746Z,38.7
2018-11-05T04:32:25.463Z,39.3
2018-11-05T04:33:26.188Z,38.7
2018-11-05T04:34:26.902Z,40.7
2018-11-05T04:35:27.624Z,40.3
2018-11-05T04:36:28.346Z,44.4
2018-11-05T04:37:29.073Z,39.7
2018-11-05T04:38:29.791Z,36.8
2018-11-05T04:39:30.517Z,40.6
2018-11-05T04:40:31.249Z,42.1
2018-11-05T04:41:31.977Z,36.0
2018-11-05T04:42:32.702Z,38.7
2018-11-05T04:43:33.412Z,42.5
2018-11-05T04:44:34.127Z,45.2
2018-11-05T04:45:34.865Z,44.0
2018-11-05T04:46:35.638Z,42.2
2018-11-05T04:47:36.309Z,46.2
2018-11-05T04:48:37.031Z,49.2
2018-11-05T04:49:37.755Z,44.0
2018-11-05T04:50:38.769Z,45.6
2018-11-05T04:51:39.510Z,45.5
2018-11-05T04:52:40.240Z,45.7
2018-11-05T04:53:40.962Z,47.8
2018-11-05T04:54:41.686Z,46.4
2018-11-05T04:55:42.411Z,50.5
2018-11-05T04:56:43.134Z,46.1
2018-11-05T04:57:43.857Z,48.2
2018-11-05T04:58:44.577Z,46.7
2018-11-05T04:59:45.542Z,45.3
2018-11-05T05:00:46.262Z,52.4
2018-11-05T05:01:46.983Z,48.8
2018-11-05T05:02:47.711Z,46.7
2018-11-05T05:03:48.425Z,43.8
2018-11-05T05:04:49.139Z,49.0
2018-11-05T05:05:49.874Z,53.0
2018-11-05T05:06:50.583Z,46.4
2018-11-05T05:07:51.309Z,54.0
2018-11-05T05:08:52.030Z,54.2
2018-11-05T05:09:52.778Z,46.7
2018-11-05T05:10:53.487Z,49.0
2018-11-05T05:11:54.262Z,45.8
2018-11-05T05:12:55.037Z,46.8
2018-11-05T05:13:55.755Z,48.0
2018-11-05T05:14:56.467Z,48.6
2018-11-05T05:15:57.197Z,45.5
2018-11-05T05:16:57.928Z,46.4
2018-11-05T05:17:58.666Z,49.9
2018-11-05T05:18:59.384Z,44.9
2018-11-05T05:20:00.350Z,52.3
2018-11-05T05:21:01.075Z,48.5
2018-11-05T05:22:01.805Z,48.6
2018-11-05T05:23:02.907Z,52.6
2018-11-05T05:24:03.508Z,46.6
2018-11-05T05:25:04.229Z,47.1
2018-11-05T05:26:05.205Z,48.6
2018-11-05T05:27:05.917Z,49.6
2018-11-05T05:28:06.786Z,47.6
2018-11-05T05:29:07.507Z,52.4
2018-11-05T05:30:08.233Z,51.2
2018-11-05T05:31:08.964Z,47.0
2018-11-05T05:32:09.683Z,49.5
2018-11-05T05:33:10.507Z,50.5
2018-11-05T05:34:11.135Z,50.5
2018-11-05T05:35:11.853Z,49.4
2018-11-05T05:36:12.591Z,54.0
2018-11-05T05:37:13.314Z,50.8
2018-11-05T05:38:14.082Z,53.9
2018-11-05T05:39:14.806Z,55.7
2018-11-05T05:40:15.542Z,49.0
2018-11-05T05:41:16.273Z,53.8
2018-11-05T05:42:16.979Z,52.4
2018-11-05T05:43:17.756Z,52.9
2018-11-05T05:44:18.481Z,51.2
2018-11-05T05:45:19.201Z,50.5
2018-11-05T05:46:19.914Z,52.3
2018-11-05T05:47:20.636Z,54.2
2018-11-05T05:48:21.363Z,122.5
2018-11-05T05:49:22.143Z,82.7
2018-11-05T05:50:22.864Z,54.3
2018-11-05T05:51:23.588Z,54.1
2018-11-05T05:52:24.299Z,47.9
2018-11-05T05:53:25.024Z,51.6
2018-11-05T05:54:25.745Z,51.5
2018-11-05T05:55:26.469Z,49.1
2018-11-05T05:56:27.180Z,54.5
2018-11-05T05:57:27.899Z,52.1
2018-11-05T05:58:28.621Z,49.7
2018-11-05T05:59:29.391Z,51.8
2018-11-05T06:00:30.113Z,48.5
2018-11-05T06:01:30.829Z,55.5
2018-11-05T06:02:31.551Z,52.2
2018-11-05T06:03:32.308Z,57.1
2018-11-05T06:04:33.043Z,55.5
2018-11-05T06:05:33.762Z,53.7
2018-11-05T06:06:34.562Z,56.8
2018-11-05T06:07:35.200Z,54.7
2018-11-05T06:08:35.925Z,51.8
2018-11-05T06:09:36.693Z,50.5
2018-11-05T06:10:37.404Z,51.3
2018-11-05T06:11:38.126Z,52.2
2018-11-05T06:12:38.857Z,55.7
2018-11-05T06:13:39.584Z,51.4
2018-11-05T06:14:40.359Z,53.1
2018-11-05T06:15:41.368Z,55.3
2018-11-05T06:16:42.095Z,50.7
2018-11-05T06:17:42.818Z,49.9
2018-11-05T06:18:43.795Z,53.4
2018-11-05T06:19:44.518Z,51.3
2018-11-05T06:20:45.244Z,52.9
2018-11-05T06:21:45.987Z,51.8
2018-11-05T06:22:46.739Z,48.9
2018-11-05T06:23:47.476Z,56.7
2018-11-05T06:24:48.190Z,51.0
2018-11-05T06:25:48.932Z,54.5
2018-11-05T06:26:49.639Z,47.1
2018-11-05T06:27:50.520Z,52.9
2018-11-05T06:28:51.245Z,49.0
2018-11-05T06:29:51.962Z,48.3
2018-11-05T06:30:52.725Z,49.7
2018-11-05T06:31:53.453Z,51.1
2018-11-05T06:32:54.180Z,47.4
2018-11-05T06:33:55.171Z,48.8
2018-11-05T06:34:55.891Z,48.4
2018-11-05T06:35:56.869Z,48.1
2018-11-05T06:36:57.579Z,50.8
2018-11-05T06:37:58.566Z,52.3
2018-11-05T06:38:59.345Z,50.1
2018-11-05T06:40:00.078Z,47.7
2018-11-05T06:41:00.810Z,49.8
2018-11-05T06:42:01.537Z,50.9
2018-11-05T06:43:02.251Z,50.9
2018-11-05T06:44:02.981Z,49.0
2018-11-05T06:45:03.703Z,43.6
2018-11-05T06:46:04.433Z,52.1
2018-11-05T06:47:05.168Z,54.4
2018-11-05T06:48:05.904Z,48.9
2018-11-05T06:49:06.638Z,47.3
2018-11-05T06:50:07.376Z,48.6
2018-11-05T06:51:08.114Z,49.9
2018-11-05T06:52:08.860Z,51.5
2018-11-05T06:53:09.583Z,47.7
2018-11-05T06:54:10.306Z,49.2
2018-11-05T06:55:11.038Z,50.0
2018-11-05T06:56:11.772Z,52.8
2018-11-05T06:57:12.503Z,46.4
2018-11-05T06:58:13.238Z,48.2
2018-11-05T06:59:14.225Z,45.3
2018-11-05T07:00:14.963Z,47.6
2018-11-05T07:01:15.745Z,46.8
2018-11-05T07:02:16.501Z,44.8
2018-11-05T07:03:17.189Z,55.9
2018-11-05T07:04:17.905Z,51.9
2018-11-05T07:05:18.628Z,45.7
2018-11-05T07:06:19.369Z,45.3
2018-11-05T07:07:20.115Z,45.1
2018-11-05T07:08:20.835Z,45.7
2018-11-05T07:09:21.590Z,45.9
2018-11-05T07:10:22.320Z,47.8
2018-11-05T07:11:23.070Z,47.3
2018-11-05T07:12:23.765Z,48.1
2018-11-05T07:13:24.498Z,49.2
2018-11-05T07:14:25.238Z,45.8
2018-11-05T07:15:25.945Z,45.5
2018-11-05T07:16:26.720Z,43.2
2018-11-05T07:17:27.441Z,44.2
2018-11-05T07:18:28.297Z,42.5
2018-11-05T07:19:28.965Z,48.9
2018-11-05T07:20:29.622Z,47.7
2018-11-05T07:21:30.602Z,46.7
2018-11-05T07:22:31.330Z,46.4
2018-11-05T07:23:32.056Z,44.9
2018-11-05T07:24:32.777Z,46.6
2018-11-05T07:25:33.750Z,43.6
2018-11-05T07:26:34.524Z,42.5
2018-11-05T07:27:35.211Z,46.0
2018-11-05T07:28:35.927Z,41.3
2018-11-05T07:29:36.672Z,47.1
2018-11-05T07:30:37.390Z,45.4
2018-11-05T07:31:38.117Z,42.9
2018-11-05T07:32:38.846Z,39.9
2018-11-05T07:33:39.697Z,44.7
2018-11-05T07:34:40.290Z,42.9
2018-11-05T07:35:41.280Z,41.0
2018-11-05T07:36:42.008Z,38.3
2018-11-05T07:37:42.749Z,44.9
2018-11-05T07:38:43.481Z,44.5
2018-11-05T07:39:44.476Z,45.3
2018-11-05T07:40:45.208Z,46.5
2018-11-05T07:41:45.929Z,44.1
2018-11-05T07:42:46.647Z,41.4
2018-11-05T07:43:47.372Z,47.5
2018-11-05T07:44:48.112Z,45.3
2018-11-05T07:45:48.836Z,40.0
2018-11-05T07:46:49.829Z,39.5
2018-11-05T07:47:50.585Z,43.5
2018-11-05T07:48:51.292Z,40.3
2018-11-05T07:49:52.028Z,41.3
2018-11-05T07:50:52.775Z,44.9
2018-11-05T07:51:53.491Z,40.2
2018-11-05T07:52:54.215Z,41.2
2018-11-05T07:53:55.264Z,40.5
2018-11-05T07:54:56.003Z,43.8
2018-11-05T07:55:56.734Z,39.1
2018-11-05T07:56:57.519Z,38.4
2018-11-05T07:57:58.172Z,36.8
2018-11-05T07:58:58.901Z,41.0
2018-11-05T07:59:59.625Z,41.3
2018-11-05T08:01:00.361Z,38.8
2018-11-05T08:02:01.136Z,47.3
2018-11-05T08:03:01.995Z,39.1
2018-11-05T08:04:02.584Z,39.8
2018-11-05T08:05:03.312Z,41.4
2018-11-05T08:06:04.036Z,41.2
2018-11-05T08:07:04.762Z,38.5
2018-11-05T08:08:05.578Z,40.9
2018-11-05T08:09:06.277Z,39.5
2018-11-05T08:10:07.018Z,40.4
2018-11-05T08:11:07.734Z,41.4
2018-11-05T08:12:08.721Z,38.7
2018-11-05T08:13:09.443Z,39.7
2018-11-05T08:14:10.208Z,45.2
2018-11-05T08:15:10.892Z,41.4
2018-11-05T08:16:11.626Z,38.7
2018-11-05T08:17:12.349Z,40.6
2018-11-05T08:18:13.337Z,41.1
2018-11-05T08:19:14.054Z,38.3
2018-11-05T08:20:14.792Z,36.2
2018-11-05T08:21:15.526Z,40.9
2018-11-05T08:22:16.250Z,36.6
2018-11-05T08:23:17.025Z,37.3
2018-11-05T08:24:18.001Z,34.6
2018-11-05T08:25:18.740Z,38.2
2018-11-05T08:26:19.457Z,37.3
2018-11-05T08:27:20.180Z,40.6
2018-11-05T08:28:20.915Z,40.6
2018-11-05T08:29:21.643Z,39.4
2018-11-05T08:30:22.391Z,40.0
2018-11-05T08:31:23.129Z,53.7
2018-11-05T08:32:23.872Z,45.8
2018-11-05T08:33:24.599Z,41.2
2018-11-05T08:34:25.658Z,42.8
2018-11-05T08:35:26.300Z,40.5
2018-11-05T08:36:27.291Z,41.1
2018-11-05T08:37:28.002Z,40.9
2018-11-05T08:38:28.725Z,40.6
2018-11-05T08:39:29.556Z,44.2
2018-11-05T08:40:30.301Z,41.7
2018-11-05T08:41:31.028Z,36.5
2018-11-05T08:42:31.766Z,40.8
2018-11-05T08:43:32.485Z,37.2
2018-11-05T08:44:33.231Z,40.7
2018-11-05T08:45:34.004Z,40.0
2018-11-05T08:46:34.782Z,41.3
2018-11-05T08:47:35.477Z,40.6
2018-11-05T08:48:36.211Z,42.3
2018-11-05T08:49:36.940Z,39.3
2018-11-05T08:50:37.723Z,43.3
2018-11-05T08:51:38.620Z,38.3
2018-11-05T08:52:39.140Z,37.4
2018-11-05T08:53:39.876Z,35.1
2018-11-05T08:54:40.608Z,39.0
2018-11-05T08:55:41.329Z,37.2
2018-11-05T08:56:42.062Z,39.8
2018-11-05T08:57:42.870Z,35.4
2018-11-05T08:58:43.510Z,36.9
2018-11-05T08:59:44.238Z,34.7
2018-11-05T09:00:44.965Z,41.4
2018-11-05T09:01:46.009Z,38.7
2018-11-05T09:02:47.036Z,37.2
2018-11-05T09:03:47.793Z,41.0
2018-11-05T09:04:48.966Z,37.2
2018-11-05T09:05:49.931Z,34.2
2018-11-05T09:06:51.123Z,38.3
2018-11-05T09:07:51.937Z,38.3
2018-11-05T09:08:52.665Z,38.9
2018-11-05T09:09:53.455Z,37.1
2018-11-05T09:10:54.554Z,37.9
2018-11-05T09:11:54.879Z,39.2
2018-11-05T09:12:55.593Z,41.6
2018-11-05T09:13:56.322Z,33.4
2018-11-05T09:14:57.063Z,37.4
2018-11-05T09:15:57.832Z,39.4
2018-11-05T09:16:58.785Z,37.0
2018-11-05T09:17:59.511Z,39.0
2018-11-05T09:19:00.259Z,36.5
2018-11-05T09:20:01.001Z,35.1
2018-11-05T09:21:01.733Z,38.0
2018-11-05T09:22:02.461Z,39.9
2018-11-05T09:23:03.190Z,36.5
2018-11-05T09:24:03.920Z,37.4
2018-11-05T09:25:04.707Z,40.4
2018-11-05T09:26:05.694Z,36.6
2018-11-05T09:27:06.411Z,38.4
2018-11-05T09:28:07.281Z,39.5
2018-11-05T09:29:07.880Z,37.3
2018-11-05T09:30:08.956Z,37.6
2018-11-05T09:31:10.071Z,42.8
2018-11-05T09:32:10.801Z,34.2
2018-11-05T09:33:11.526Z,36.8
2018-11-05T09:34:12.274Z,34.6
2018-11-05T09:35:13.448Z,35.7
2018-11-05T09:36:14.493Z,35.3
2018-11-05T09:37:15.231Z,33.5
2018-11-05T09:38:16.229Z,36.2
2018-11-05T09:39:16.946Z,34.9
2018-11-05T09:40:17.718Z,34.6
2018-11-05T09:41:18.421Z,34.8
2018-11-05T09:42:19.147Z,41.6
2018-11-05T09:43:19.875Z,35.1
2018-11-05T09:44:20.617Z,35.9
2018-11-05T09:45:21.354Z,37.1
2018-11-05T09:46:22.084Z,38.0
2018-11-05T09:47:22.816Z,39.4
2018-11-05T09:48:23.544Z,35.5
2018-11-05T09:49:24.291Z,30.4
2018-11-05T09:50:25.285Z,31.8
2018-11-05T09:51:25.993Z,33.4
2018-11-05T09:52:26.787Z,35.5
2018-11-05T09:53:27.518Z,32.0
2018-11-05T09:54:28.250Z,32.7
2018-11-05T09:55:29.029Z,31.3
2018-11-05T09:56:29.723Z,28.4
2018-11-05T09:57:30.507Z,30.9
2018-11-05T09:58:31.244Z,29.0
2018-11-05T09:59:31.968Z,28.9
2018-11-05T10:00:32.702Z,33.3
2018-11-05T10:01:33.444Z,30.5
2018-11-05T10:02:34.305Z,27.4
2018-11-05T10:03:35.181Z,31.3
2018-11-05T10:04:35.940Z,30.1
2018-11-05T10:05:36.493Z,27.6
2018-11-05T10:06:37.159Z,33.4
2018-11-05T10:07:37.933Z,35.2
2018-11-05T10:08:38.653Z,33.0
2018-11-05T10:09:39.462Z,29.8
2018-11-05T10:10:40.121Z,28.3
2018-11-05T10:11:40.848Z,25.3
2018-11-05T10:12:41.592Z,27.4
2018-11-05T10:13:42.324Z,26.7
2018-11-05T10:14:43.056Z,24.5
2018-11-05T10:15:43.790Z,29.9
2018-11-05T10:16:44.539Z,35.3
2018-11-05T10:17:45.280Z,28.6
2018-11-05T10:18:46.053Z,27.1
2018-11-05T10:19:46.782Z,24.3
2018-11-05T10:20:47.516Z,27.4
2018-11-05T10:21:48.231Z,27.4
2018-11-05T10:22:48.977Z,29.1
2018-11-05T10:23:49.698Z,29.0
2018-11-05T10:24:50.537Z,27.2
2018-11-05T10:25:51.147Z,29.9
2018-11-05T10:26:51.880Z,26.1
2018-11-05T10:27:52.605Z,25.8
2018-11-05T10:28:53.333Z,30.6
2018-11-05T10:29:54.070Z,29.5
2018-11-05T10:30:54.843Z,28.5
2018-11-05T10:31:55.590Z,30.7
2018-11-05T10:32:56.329Z,29.0
2018-11-05T10:33:57.034Z,28.0
2018-11-05T10:34:57.772Z,28.1
2018-11-05T10:35:58.508Z,26.6
2018-11-05T10:36:59.293Z,27.2
2018-11-05T10:38:00.273Z,25.5
2018-11-05T10:39:00.988Z,27.7
2018-11-05T10:40:01.778Z,24.8
2018-11-05T10:41:02.436Z,26.6
2018-11-05T10:42:03.684Z,27.7
2018-11-05T10:43:04.433Z,26.5
2018-11-05T10:44:05.180Z,27.9
2018-11-05T10:45:05.898Z,27.3
2018-11-05T10:46:06.661Z,27.9
2018-11-05T10:47:07.407Z,25.4
2018-11-05T10:48:08.154Z,25.1
2018-11-05T10:49:08.881Z,23.7
2018-11-05T10:50:09.665Z,26.2
2018-11-05T10:51:10.425Z,26.8
2018-11-05T10:52:11.177Z,24.0
2018-11-05T10:53:11.816Z,23.6
2018-11-05T10:54:12.549Z,23.0
2018-11-05T10:55:13.274Z,25.8
2018-11-05T10:56:14.013Z,25.6
2018-11-05T10:57:14.737Z,25.2
2018-11-05T10:58:15.569Z,25.3
2018-11-05T10:59:16.227Z,24.4
2018-11-05T11:00:17.327Z,21.3
2018-11-05T11:01:18.419Z,26.9
2018-11-05T11:02:19.166Z,26.6
2018-11-05T11:03:19.945Z,24.2
2018-11-05T11:04:20.677Z,29.2
2018-11-05T11:05:21.413Z,26.8
2018-11-05T11:06:22.142Z,24.3
2018-11-05T11:07:22.871Z,23.9
2018-11-05T11:08:23.654Z,25.5
2018-11-05T11:09:24.433Z,23.8
2018-11-05T11:10:25.136Z,25.6
2018-11-05T11:11:25.867Z,22.9
2018-11-05T11:12:26.605Z,26.2
2018-11-05T11:13:27.332Z,23.2
2018-11-05T11:14:28.069Z,21.1
2018-11-05T11:15:28.806Z,24.8
2018-11-05T11:16:29.803Z,24.3
2018-11-05T11:17:30.534Z,25.8
2018-11-05T11:18:31.267Z,24.9
2018-11-05T11:19:31.997Z,26.7
2018-11-05T11:20:32.731Z,23.5
2018-11-05T11:21:33.473Z,26.6
2018-11-05T11:22:34.214Z,24.0
2018-11-05T11:23:34.948Z,21.8
2018-11-05T11:24:35.672Z,25.2
2018-11-05T11:25:36.394Z,27.8
2018-11-05T11:26:37.415Z,24.2
2018-11-05T11:27:38.154Z,25.7
2018-11-05T11:28:38.920Z,23.4
2018-11-05T11:29:39.630Z,24.7
2018-11-05T11:30:40.437Z,26.2
2018-11-05T11:31:41.523Z,27.8
2018-11-05T11:32:42.255Z,30.0
2018-11-05T11:33:43.000Z,27.2
2018-11-05T11:34:43.745Z,24.3
2018-11-05T11:35:44.805Z,23.3
2018-11-05T11:36:46.079Z,26.3
2018-11-05T11:37:46.912Z,25.9
2018-11-05T11:38:47.689Z,27.1
2018-11-05T11:39:48.404Z,26.1
2018-11-05T11:40:49.138Z,27.8
2018-11-05T11:41:49.872Z,25.3
2018-11-05T11:42:51.089Z,27.4
2018-11-05T11:43:51.952Z,24.5
2018-11-05T11:44:52.972Z,25.3
2018-11-05T11:45:54.175Z,27.4
2018-11-05T11:46:54.906Z,26.7
2018-11-05T11:47:56.013Z,24.4
2018-11-05T11:49:59.998Z,22.2
2018-11-05T11:51:01.052Z,23.1
2018-11-05T11:52:01.783Z,24.2
2018-11-05T11:53:02.746Z,26.6
2018-11-05T11:54:03.331Z,25.0
2018-11-05T11:55:04.067Z,28.5
2018-11-05T11:56:04.845Z,28.4
2018-11-05T11:57:05.538Z,23.7
2018-11-05T11:58:06.273Z,27.3
2018-11-05T11:59:07.743Z,25.7
2018-11-05T12:00:08.787Z,24.8
2018-11-05T12:01:09.576Z,24.8
2018-11-05T12:02:10.315Z,24.6
2018-11-05T12:03:11.036Z,26.3
2018-11-05T12:05:13.694Z,25.3
2018-11-05T12:06:14.381Z,25.5
2018-11-05T12:07:15.069Z,27.2
2018-11-05T12:08:15.789Z,27.2
2018-11-05T12:09:16.542Z,28.1
2018-11-05T12:10:17.328Z,23.4
2018-11-05T12:11:18.061Z,30.1
2018-11-05T12:12:18.784Z,25.6
2018-11-05T12:13:19.526Z,27.9
2018-11-05T12:14:20.372Z,26.0
2018-11-05T12:15:21.103Z,27.5
2018-11-05T12:16:21.843Z,29.0
2018-11-05T12:17:22.632Z,25.6
2018-11-05T12:18:23.370Z,26.4
2018-11-05T12:19:24.440Z,25.6
2018-11-05T12:20:25.568Z,28.0
2018-11-05T12:21:26.382Z,25.9
2018-11-05T12:22:27.165Z,30.7
2018-11-05T12:23:28.917Z,29.5
2018-11-05T12:24:29.909Z,28.2
2018-11-05T12:25:31.235Z,29.4
2018-11-05T12:26:32.069Z,26.2
2018-11-05T12:27:33.708Z,33.7
2018-11-05T12:28:35.420Z,29.3
2018-11-05T12:29:36.503Z,27.5
2018-11-05T12:30:38.040Z,27.8
2018-11-05T12:31:39.263Z,31.2
2018-11-05T12:32:40.237Z,26.7
2018-11-05T12:33:41.121Z,28.3
2018-11-05T12:34:41.851Z,27.8
2018-11-05T12:35:42.620Z,32.3
2018-11-05T12:36:43.372Z,33.2
2018-11-05T12:37:44.354Z,30.9
2018-11-05T12:38:45.138Z,36.2
2018-11-05T12:39:45.857Z,27.6
2018-11-05T12:40:46.654Z,31.4
2018-11-05T12:41:47.387Z,30.9
2018-11-05T12:42:48.130Z,29.7
2018-11-05T12:43:48.855Z,30.0
2018-11-05T12:44:49.639Z,32.7
2018-11-05T12:45:50.388Z,30.3
2018-11-05T12:46:51.119Z,32.5
2018-11-05T12:47:51.845Z,31.4
2018-11-05T12:48:52.576Z,31.7
2018-11-05T12:49:53.419Z,37.3
2018-11-05T12:50:54.502Z,34.6
2018-11-05T12:51:55.852Z,33.9
2018-11-05T12:52:56.570Z,29.9
2018-11-05T12:53:57.306Z,31.2
2018-11-05T12:54:58.046Z,33.3
2018-11-05T12:55:58.775Z,31.3
2018-11-05T12:56:59.755Z,30.9
2018-11-05T12:58:01.004Z,38.7
2018-11-05T12:59:02.000Z,34.7
2018-11-05T13:00:02.726Z,32.7
2018-11-05T13:01:03.519Z,32.5
2018-11-05T13:02:04.501Z,35.0
2018-11-05T13:03:05.217Z,36.1
2018-11-05T13:04:05.990Z,34.9
2018-11-05T13:05:06.685Z,34.3
2018-11-05T13:06:07.462Z,32.7
2018-11-05T13:07:08.344Z,30.4
2018-11-05T13:08:09.046Z,36.5
2018-11-05T13:09:09.782Z,32.1
2018-11-05T13:10:10.512Z,32.8
2018-11-05T13:11:11.245Z,31.1
2018-11-05T13:12:11.976Z,32.3
2018-11-05T13:13:13.038Z,34.2
2018-11-05T13:14:13.828Z,33.8
2018-11-05T13:15:14.585Z,35.4
2018-11-05T13:16:15.243Z,35.4
2018-11-05T13:17:16.023Z,37.6
2018-11-05T13:18:16.748Z,34.9
2018-11-05T13:19:17.490Z,35.2
2018-11-05T13:20:18.683Z,38.4
2018-11-05T13:21:19.491Z,35.9
2018-11-05T13:22:21.055Z,37.2
2018-11-05T13:23:21.715Z,36.2
2018-11-05T13:24:22.444Z,37.3
2018-11-05T13:25:23.427Z,37.6
2018-11-05T13:26:24.143Z,35.7
2018-11-05T13:27:25.138Z,38.3
2018-11-05T13:28:26.185Z,36.5
2018-11-05T13:29:26.895Z,37.1
2018-11-05T13:30:27.613Z,38.5